createdAt,value
2023-02-08T00:00:47.748Z,13.53
2023-02-08T00:03:14.524Z,13.00
2023-02-08T00:05:41.633Z,13.43
2023-02-08T00:08:08.570Z,12.53
2023-02-08T00:10:35.701Z,12.70
2023-02-08T00:13:02.601Z,12.57
2023-02-08T00:15:29.433Z,12.20
2023-02-08T00:17:56.204Z,12.63
2023-02-08T00:20:23.040Z,13.00
2023-02-08T00:22:50.509Z,12.97
2023-02-08T00:25:18.674Z,12.60
2023-02-08T00:27:45.463Z,12.50
2023-02-08T00:30:12.501Z,12.37
2023-02-08T00:32:39.404Z,12.63
2023-02-08T00:35:06.613Z,13.10
2023-02-08T00:37:33.419Z,12.30
2023-02-08T00:40:02.583Z,12.60
2023-02-08T00:42:30.289Z,12.90
2023-02-08T00:44:57.956Z,12.13
2023-02-08T00:47:25.467Z,11.83
2023-02-08T00:49:52.261Z,12.57
2023-02-08T00:52:19.152Z,12.90
2023-02-08T00:54:53.165Z,12.87
2023-02-08T00:57:32.783Z,11.80
2023-02-08T01:00:00.207Z,12.53
2023-02-08T01:02:27.255Z,12.43
2023-02-08T01:04:54.110Z,12.33
2023-02-08T01:07:21.011Z,12.40
2023-02-08T01:09:47.808Z,12.73
2023-02-08T01:12:14.740Z,12.47
2023-02-08T01:14:41.806Z,12.60
2023-02-08T01:17:08.761Z,12.30
2023-02-08T01:19:35.598Z,12.90
2023-02-08T01:22:03.135Z,12.10
2023-02-08T01:24:29.943Z,12.97
2023-02-08T01:26:56.696Z,12.97
2023-02-08T01:29:23.478Z,12.60
2023-02-08T01:31:50.306Z,14.00
2023-02-08T01:34:17.137Z,12.90
2023-02-08T01:36:43.921Z,13.07
2023-02-08T01:39:11.722Z,13.00
2023-02-08T01:41:43.997Z,13.90
2023-02-08T01:44:13.699Z,13.50
2023-02-08T01:46:48.774Z,13.33
2023-02-08T01:49:24.192Z,13.00
2023-02-08T01:52:03.578Z,13.17
2023-02-08T01:54:36.434Z,13.00
2023-02-08T01:57:03.789Z,13.43
2023-02-08T01:59:42.615Z,13.20
2023-02-08T02:02:13.613Z,13.27
2023-02-08T02:04:40.684Z,13.37
2023-02-08T02:07:07.611Z,13.17
2023-02-08T02:09:44.888Z,13.87
2023-02-08T02:12:12.405Z,12.80
2023-02-08T02:14:39.795Z,12.70
2023-02-08T02:17:10.933Z,12.67
2023-02-08T02:20:05.964Z,13.33
2023-02-08T02:22:32.739Z,12.27
2023-02-08T02:25:18.209Z,12.63
2023-02-08T02:28:13.492Z,13.40
2023-02-08T02:30:55.319Z,12.17
2023-02-08T02:33:34.305Z,12.77
2023-02-08T02:36:27.638Z,13.40
2023-02-08T02:39:06.160Z,14.43
2023-02-08T02:42:16.863Z,13.80
2023-02-08T02:44:56.997Z,14.60
2023-02-08T02:47:39.033Z,15.00
2023-02-08T02:50:29.287Z,14.77
2023-02-08T02:53:05.066Z,15.07
2023-02-08T02:55:36.977Z,15.33
2023-02-08T02:58:05.346Z,15.33
2023-02-08T03:00:33.829Z,14.97
2023-02-08T03:03:00.757Z,15.87
2023-02-08T03:05:29.060Z,15.00
2023-02-08T03:08:32.779Z,15.53
2023-02-08T03:11:05.987Z,14.93
2023-02-08T03:14:08.205Z,15.57
2023-02-08T03:16:57.255Z,15.33
2023-02-08T03:19:39.556Z,15.00
2023-02-08T03:22:12.829Z,14.13
2023-02-08T03:24:55.603Z,15.97
2023-02-08T03:27:34.455Z,16.00
2023-02-08T03:30:22.987Z,14.60
2023-02-08T03:33:02.793Z,14.83
2023-02-08T03:35:29.526Z,14.97
2023-02-08T03:38:07.734Z,15.53
2023-02-08T03:40:39.328Z,14.80
2023-02-08T03:43:16.503Z,14.63
2023-02-08T03:45:50.025Z,14.57
2023-02-08T03:48:19.950Z,14.57
2023-02-08T03:50:50.686Z,14.70
2023-02-08T03:53:22.122Z,15.73
2023-02-08T03:55:58.507Z,15.13
2023-02-08T03:58:34.394Z,15.03
2023-02-08T04:01:27.305Z,14.20
2023-02-08T04:03:54.977Z,13.90
2023-02-08T04:06:22.151Z,14.77
2023-02-08T04:08:50.614Z,14.63
2023-02-08T04:11:17.606Z,13.80
2023-02-08T04:13:44.391Z,14.10
2023-02-08T04:16:14.609Z,14.80
2023-02-08T04:18:41.476Z,15.03
2023-02-08T04:21:08.511Z,15.13
2023-02-08T04:23:37.883Z,15.97
2023-02-08T04:26:05.036Z,15.67
2023-02-08T04:28:31.903Z,15.70
2023-02-08T04:30:58.872Z,15.53
2023-02-08T04:33:27.094Z,15.67
2023-02-08T04:35:53.882Z,15.57
2023-02-08T04:38:20.714Z,16.33
2023-02-08T04:40:47.558Z,16.40
2023-02-08T04:43:14.353Z,16.20
2023-02-08T04:45:41.163Z,16.13
2023-02-08T04:48:07.941Z,16.23
2023-02-08T04:50:35.473Z,16.33
2023-02-08T04:53:02.293Z,15.87
2023-02-08T04:55:29.039Z,15.87
2023-02-08T04:57:55.788Z,17.20
2023-02-08T05:00:22.722Z,16.43
2023-02-08T05:02:55.660Z,16.30
2023-02-08T05:05:22.844Z,16.47
2023-02-08T05:07:49.682Z,17.23
2023-02-08T05:10:16.923Z,16.97
2023-02-08T05:12:45.903Z,16.83
2023-02-08T05:15:12.997Z,17.77
2023-02-08T05:17:39.772Z,17.87
2023-02-08T05:20:07.304Z,17.17
2023-02-08T05:22:34.383Z,17.23
2023-02-08T05:25:01.417Z,17.83
2023-02-08T05:27:28.564Z,18.63
2023-02-08T05:29:56.735Z,18.53
2023-02-08T05:32:24.398Z,18.57
2023-02-08T05:34:51.246Z,18.20
2023-02-08T05:37:18.012Z,18.87
2023-02-08T05:39:44.785Z,18.67
2023-02-08T05:42:11.558Z,20.13
2023-02-08T05:44:38.526Z,19.10
2023-02-08T05:47:05.475Z,19.93
2023-02-08T05:49:32.299Z,19.67
2023-02-08T05:51:59.082Z,19.20
2023-02-08T05:54:25.927Z,20.20
2023-02-08T05:56:52.683Z,20.87
2023-02-08T05:59:20.511Z,19.10
2023-02-08T06:01:47.373Z,20.00
2023-02-08T06:04:14.202Z,20.13
2023-02-08T06:06:41.043Z,20.47
2023-02-08T06:09:07.846Z,20.63
2023-02-08T06:11:36.184Z,20.57
2023-02-08T06:14:03.397Z,20.97
2023-02-08T06:16:30.292Z,21.53
2023-02-08T06:18:57.717Z,20.77
2023-02-08T06:21:24.798Z,20.47
2023-02-08T06:23:51.711Z,21.43
2023-02-08T06:26:18.589Z,19.90
2023-02-08T06:28:45.455Z,21.17
2023-02-08T06:31:12.247Z,20.50
2023-02-08T06:33:39.038Z,21.07
2023-02-08T06:36:06.580Z,20.77
2023-02-08T06:38:33.364Z,22.07
2023-02-08T06:41:00.185Z,22.33
2023-02-08T06:43:27.015Z,20.53
2023-02-08T06:45:53.812Z,18.97
2023-02-08T06:48:20.614Z,19.90
2023-02-08T06:50:47.409Z,19.77
2023-02-08T06:53:14.945Z,20.17
2023-02-08T06:55:41.772Z,19.17
2023-02-08T06:58:09.995Z,19.97
2023-02-08T07:00:39.334Z,19.37
2023-02-08T07:03:06.229Z,18.47
2023-02-08T07:05:36.536Z,17.10
2023-02-08T07:08:03.886Z,15.77
2023-02-08T07:10:30.749Z,16.03
2023-02-08T07:12:57.584Z,16.17
2023-02-08T07:15:24.485Z,16.37
2023-02-08T07:17:51.259Z,15.70
2023-02-08T07:20:18.336Z,15.30
2023-02-08T07:22:45.138Z,15.83
2023-02-08T07:25:12.027Z,15.27
2023-02-08T07:27:38.822Z,15.20
2023-02-08T07:30:08.249Z,15.17
2023-02-08T07:32:35.544Z,13.77
2023-02-08T07:35:02.468Z,13.97
2023-02-08T07:37:29.431Z,14.23
2023-02-08T07:39:56.766Z,13.43
2023-02-08T07:42:23.737Z,13.53
2023-02-08T07:44:50.813Z,14.60
2023-02-08T07:47:19.655Z,14.03
2023-02-08T07:49:46.512Z,14.13
2023-02-08T07:52:13.268Z,15.20
2023-02-08T07:54:40.092Z,14.10
2023-02-08T07:57:07.041Z,15.73
2023-02-08T07:59:33.901Z,15.07
2023-02-08T08:02:00.730Z,14.60
2023-02-08T08:04:27.672Z,14.90
2023-02-08T08:06:57.794Z,15.73
2023-02-08T08:09:24.630Z,14.53
2023-02-08T08:11:51.520Z,14.27
2023-02-08T08:14:18.384Z,15.40
2023-02-08T08:16:45.227Z,14.50
2023-02-08T08:19:12.089Z,15.80
2023-02-08T08:21:39.349Z,15.43
2023-02-08T08:24:06.348Z,15.17
2023-02-08T08:26:33.193Z,15.27
2023-02-08T08:29:00.054Z,14.50
2023-02-08T08:31:27.078Z,15.17
2023-02-08T08:33:55.487Z,14.57
2023-02-08T08:36:22.744Z,14.53
2023-02-08T08:38:49.564Z,15.10
2023-02-08T08:41:22.421Z,15.00
2023-02-08T08:43:49.617Z,16.03
2023-02-08T08:46:16.814Z,15.43
2023-02-08T08:48:43.845Z,14.80
2023-02-08T08:51:10.922Z,14.53
2023-02-08T08:53:37.811Z,15.27
2023-02-08T08:56:05.675Z,14.13
2023-02-08T08:58:32.910Z,14.90
2023-02-08T09:01:00.538Z,14.47
2023-02-08T09:03:29.191Z,13.80
2023-02-08T09:05:56.667Z,14.37
2023-02-08T09:08:23.539Z,13.67
2023-02-08T09:10:50.486Z,13.70
2023-02-08T09:13:27.531Z,13.90
2023-02-08T09:15:54.698Z,13.60
2023-02-08T09:18:21.571Z,12.80
2023-02-08T09:20:48.407Z,13.70
2023-02-08T09:23:15.260Z,13.10
2023-02-08T09:25:42.169Z,13.20
2023-02-08T09:28:09.156Z,13.17
2023-02-08T09:30:35.983Z,12.80
2023-02-08T09:33:02.856Z,13.10
2023-02-08T09:35:29.842Z,12.43
2023-02-08T09:37:58.321Z,12.63
2023-02-08T09:40:32.221Z,11.80
2023-02-08T09:43:21.957Z,11.00
2023-02-08T09:46:00.163Z,9.57
2023-02-08T09:48:41.073Z,9.97
2023-02-08T09:51:14.311Z,9.77
2023-02-08T09:53:47.498Z,9.93
2023-02-08T09:56:16.964Z,7.70
2023-02-08T09:58:45.837Z,6.90
2023-02-08T10:01:28.213Z,7.77
2023-02-08T10:04:00.981Z,6.93
2023-02-08T10:06:29.111Z,7.23
2023-02-08T10:08:56.719Z,6.40
2023-02-08T10:11:58.452Z,6.63
2023-02-08T10:14:49.711Z,6.67
2023-02-08T10:17:28.546Z,6.13
2023-02-08T10:20:04.269Z,5.97
2023-02-08T10:22:55.864Z,6.10
2023-02-08T10:25:34.113Z,5.43
2023-02-08T10:28:09.837Z,4.83
2023-02-08T10:30:45.944Z,4.37
2023-02-08T10:33:26.724Z,3.93
2023-02-08T10:35:54.923Z,3.97
2023-02-08T10:38:44.078Z,3.50
2023-02-08T10:41:20.238Z,3.17
2023-02-08T10:43:56.130Z,2.90
2023-02-08T10:46:40.893Z,3.07
2023-02-08T10:49:29.795Z,2.87
2023-02-08T10:51:56.599Z,3.00
2023-02-08T10:54:23.458Z,2.90
2023-02-08T10:57:00.983Z,2.27
2023-02-08T10:59:35.668Z,2.53
2023-02-08T11:02:02.718Z,2.60
2023-02-08T11:04:29.596Z,3.07
2023-02-08T11:06:56.811Z,2.43
2023-02-08T11:09:25.152Z,2.70
2023-02-08T11:11:53.030Z,2.60
2023-02-08T11:14:51.388Z,2.37
2023-02-08T11:17:34.097Z,2.50
2023-02-08T11:20:01.359Z,2.50
2023-02-08T11:22:34.509Z,2.60
2023-02-08T11:25:33.119Z,2.27
2023-02-08T11:28:00.981Z,2.47
2023-02-08T11:30:28.158Z,2.40
2023-02-08T11:33:15.562Z,2.57
2023-02-08T11:35:42.877Z,2.67
2023-02-08T11:38:19.699Z,2.80
2023-02-08T11:40:46.608Z,3.50
2023-02-08T11:43:28.649Z,3.60
2023-02-08T11:45:57.467Z,3.57
2023-02-08T11:48:41.210Z,3.50
2023-02-08T11:51:09.908Z,3.93
2023-02-08T11:53:43.487Z,3.60
2023-02-08T11:56:24.629Z,3.73
2023-02-08T11:59:12.682Z,3.73
2023-02-08T12:01:42.163Z,3.97
2023-02-08T12:04:12.098Z,3.70
2023-02-08T12:06:45.117Z,3.53
2023-02-08T12:09:43.118Z,3.60
2023-02-08T12:12:13.765Z,3.70
2023-02-08T12:14:52.038Z,4.60
2023-02-08T12:17:24.331Z,4.90
2023-02-08T12:20:23.254Z,4.43
2023-02-08T12:23:20.964Z,4.78
2023-02-08T12:25:56.629Z,3.90
2023-02-08T12:28:54.001Z,3.80
2023-02-08T12:31:56.056Z,3.73
2023-02-08T12:34:49.529Z,4.23
2023-02-08T12:37:53.133Z,3.80
2023-02-08T12:40:49.748Z,3.50
2023-02-08T12:43:37.688Z,3.60
2023-02-08T12:46:26.351Z,3.60
2023-02-08T12:49:34.788Z,3.53
2023-02-08T12:52:13.674Z,4.00
2023-02-08T12:54:58.431Z,3.87
2023-02-08T12:57:27.406Z,3.93
2023-02-08T12:59:57.954Z,3.90
2023-02-08T13:02:44.450Z,4.03
2023-02-08T13:05:18.906Z,3.80
2023-02-08T13:07:49.325Z,4.33
2023-02-08T13:10:41.887Z,4.40
2023-02-08T13:13:17.927Z,4.00
2023-02-08T13:16:13.063Z,4.30
2023-02-08T13:19:14.787Z,4.33
2023-02-08T13:21:43.794Z,4.37
2023-02-08T13:24:36.570Z,4.47
2023-02-08T13:27:07.072Z,4.40
2023-02-08T13:29:38.019Z,4.63
2023-02-08T13:32:16.537Z,4.17
2023-02-08T13:34:54.368Z,4.90
2023-02-08T13:37:30.183Z,4.07
2023-02-08T13:40:17.662Z,4.30
2023-02-08T13:42:52.088Z,4.50
2023-02-08T13:45:45.702Z,4.20
2023-02-08T13:48:17.665Z,4.30
2023-02-08T13:50:53.923Z,4.23
2023-02-08T13:53:41.522Z,4.37
2023-02-08T13:56:12.016Z,4.67
2023-02-08T13:58:47.936Z,4.60
2023-02-08T14:01:33.039Z,4.57
2023-02-08T14:04:17.504Z,4.53
2023-02-08T14:06:44.815Z,5.30
2023-02-08T14:09:51.868Z,6.20
2023-02-08T14:15:15.523Z,4.90
2023-02-08T14:17:48.935Z,5.73
2023-02-08T14:20:41.107Z,5.57
2023-02-08T14:26:46.301Z,5.47
2023-02-08T14:29:24.208Z,5.50
2023-02-08T14:31:56.829Z,6.55
2023-02-08T14:34:35.310Z,6.33
2023-02-08T14:37:24.022Z,5.47
2023-02-08T14:43:19.954Z,5.70
2023-02-08T14:45:48.755Z,5.43
2023-02-08T14:48:30.676Z,5.40
2023-02-08T14:51:11.811Z,6.00
2023-02-08T14:54:04.060Z,6.07
2023-02-08T14:56:54.316Z,5.90
2023-02-08T14:59:26.715Z,6.20
2023-02-08T15:01:59.573Z,5.70
2023-02-08T15:04:27.576Z,7.32
2023-02-08T15:07:36.275Z,6.40
2023-02-08T15:10:06.743Z,6.20
2023-02-08T15:12:37.492Z,7.30
2023-02-08T15:15:05.983Z,6.93
2023-02-08T15:17:46.434Z,7.20
2023-02-08T15:20:28.854Z,6.77
2023-02-08T15:23:07.233Z,7.07
2023-02-08T15:25:37.239Z,6.63
2023-02-08T15:28:18.226Z,6.87
2023-02-08T15:30:46.589Z,6.93
2023-02-08T15:33:18.045Z,7.37
2023-02-08T15:35:46.042Z,9.38
2023-02-08T15:38:20.090Z,8.10
2023-02-08T15:41:13.306Z,8.00
2023-02-08T15:43:41.674Z,8.53
2023-02-08T15:46:24.780Z,7.73
2023-02-08T15:48:52.697Z,8.63
2023-02-08T15:51:23.114Z,8.37
2023-02-08T15:53:53.330Z,7.77
2023-02-08T15:56:37.803Z,7.80
2023-02-08T15:59:08.570Z,7.83
2023-02-08T16:01:35.496Z,7.93
2023-02-08T16:04:12.542Z,8.70
2023-02-08T16:06:51.963Z,8.30
2023-02-08T16:09:27.488Z,8.50
2023-02-08T16:11:58.337Z,8.60
2023-02-08T16:14:29.119Z,8.37
2023-02-08T16:16:58.388Z,8.23
2023-02-08T16:19:33.551Z,8.67
2023-02-08T16:22:12.697Z,8.20
2023-02-08T16:24:39.540Z,8.00
2023-02-08T16:27:26.242Z,8.00
2023-02-08T16:29:53.719Z,7.90
2023-02-08T16:32:29.513Z,8.13
2023-02-08T16:34:57.285Z,7.10
2023-02-08T16:37:29.812Z,7.53
2023-02-08T16:40:27.112Z,7.10
2023-02-08T16:43:22.889Z,7.13
2023-02-08T16:46:11.800Z,7.72
2023-02-08T16:48:44.765Z,6.93
2023-02-08T16:51:16.741Z,7.90
2023-02-08T16:53:43.878Z,7.50
2023-02-08T16:56:11.522Z,7.60
2023-02-08T16:58:38.716Z,9.77
2023-02-08T17:01:06.363Z,8.20
2023-02-08T17:03:35.852Z,7.83
2023-02-08T17:06:02.713Z,7.60
2023-02-08T17:08:29.572Z,7.97
2023-02-08T17:10:59.150Z,10.55
2023-02-08T17:13:28.935Z,8.77
2023-02-08T17:15:55.982Z,8.70
2023-02-08T17:18:22.811Z,8.53
2023-02-08T17:20:49.734Z,8.10
2023-02-08T17:23:16.625Z,8.93
2023-02-08T17:25:43.963Z,9.03
2023-02-08T17:28:19.499Z,8.80
2023-02-08T17:30:47.502Z,8.73
2023-02-08T17:33:23.548Z,9.13
2023-02-08T17:35:51.957Z,9.20
2023-02-08T17:38:20.521Z,9.70
2023-02-08T17:40:47.601Z,11.20
2023-02-08T17:43:14.983Z,11.17
2023-02-08T17:45:44.044Z,11.23
2023-02-08T17:48:13.526Z,11.50
2023-02-08T17:50:43.567Z,11.73
2023-02-08T17:53:10.776Z,11.23
2023-02-08T17:55:37.646Z,11.37
2023-02-08T17:58:04.413Z,12.03
2023-02-08T18:00:31.250Z,12.47
2023-02-08T18:03:00.948Z,12.60
2023-02-08T18:05:28.714Z,12.83
2023-02-08T18:07:56.845Z,13.30
2023-02-08T18:10:24.721Z,13.03
2023-02-08T18:12:51.662Z,12.77
2023-02-08T18:15:21.328Z,12.30
2023-02-08T18:17:50.298Z,12.20
2023-02-08T18:20:17.842Z,11.90
2023-02-08T18:22:45.039Z,11.43
2023-02-08T18:25:12.921Z,11.53
2023-02-08T18:27:40.085Z,11.30
2023-02-08T18:30:08.226Z,11.60
2023-02-08T18:32:35.167Z,11.03
2023-02-08T18:35:04.366Z,11.23
2023-02-08T18:37:32.272Z,10.77
2023-02-08T18:40:00.066Z,10.57
2023-02-08T18:42:27.205Z,10.87
2023-02-08T18:44:54.127Z,10.70
2023-02-08T18:47:21.033Z,10.83
2023-02-08T18:49:47.920Z,10.93
2023-02-08T18:52:17.534Z,10.97
2023-02-08T18:54:44.381Z,10.93
2023-02-08T18:57:11.444Z,10.10
2023-02-08T18:59:39.080Z,10.13
2023-02-08T19:02:07.877Z,10.50
2023-02-08T19:04:38.620Z,10.20
2023-02-08T19:07:06.873Z,9.63
2023-02-08T19:09:38.041Z,10.03
2023-02-08T19:12:05.734Z,9.70
2023-02-08T19:14:32.603Z,10.57
2023-02-08T19:16:59.674Z,10.60
2023-02-08T19:19:26.526Z,10.60
2023-02-08T19:21:53.425Z,11.60
2023-02-08T19:24:20.265Z,12.93
2023-02-08T19:26:47.479Z,14.93
2023-02-08T19:29:17.012Z,15.67
2023-02-08T19:31:45.257Z,15.33
2023-02-08T19:34:12.985Z,15.97
2023-02-08T19:36:46.520Z,15.77
2023-02-08T19:39:16.374Z,15.33
2023-02-08T19:41:47.624Z,15.57
2023-02-08T19:44:17.899Z,16.43
2023-02-08T19:46:50.335Z,15.47
2023-02-08T19:49:17.603Z,16.17
2023-02-08T19:51:44.787Z,16.43
2023-02-08T19:54:14.085Z,17.00
2023-02-08T19:56:41.724Z,16.87
2023-02-08T19:59:19.349Z,18.63
2023-02-08T20:01:46.650Z,17.43
2023-02-08T20:04:13.869Z,17.73
2023-02-08T20:06:41.383Z,18.67
2023-02-08T20:09:08.854Z,18.53
2023-02-08T20:11:51.209Z,17.87
2023-02-08T20:14:23.788Z,17.27
2023-02-08T20:16:50.775Z,17.70
2023-02-08T20:19:17.721Z,18.33
2023-02-08T20:21:45.389Z,19.27
2023-02-08T20:24:12.659Z,18.10
2023-02-08T20:26:41.511Z,18.37
2023-02-08T20:29:09.057Z,17.47
2023-02-08T20:31:37.543Z,18.03
2023-02-08T20:34:07.910Z,17.93
2023-02-08T20:36:40.976Z,17.90
2023-02-08T20:39:11.092Z,16.97
2023-02-08T20:41:38.531Z,18.23
2023-02-08T20:44:05.764Z,18.30
2023-02-08T20:46:35.219Z,17.57
2023-02-08T20:49:03.946Z,18.30
2023-02-08T20:51:31.322Z,17.93
2023-02-08T20:54:00.049Z,17.50
2023-02-08T20:56:30.170Z,18.77
2023-02-08T20:58:57.238Z,17.93
2023-02-08T21:01:27.148Z,17.60
2023-02-08T21:03:59.404Z,18.40
2023-02-08T21:06:35.480Z,18.40
2023-02-08T21:09:08.199Z,18.10
2023-02-08T21:11:35.682Z,17.73
2023-02-08T21:14:04.030Z,19.13
2023-02-08T21:16:31.420Z,19.03
2023-02-08T21:18:58.890Z,18.67
2023-02-08T21:21:27.804Z,18.80
2023-02-08T21:23:58.941Z,18.50
2023-02-08T21:26:26.842Z,19.93
2023-02-08T21:28:55.977Z,20.57
2023-02-08T21:31:28.591Z,20.93
2023-02-08T21:33:55.549Z,20.83
2023-02-08T21:36:24.103Z,20.67
2023-02-08T21:38:51.669Z,21.13
2023-02-08T21:41:23.515Z,21.40
2023-02-08T21:43:56.115Z,22.23
2023-02-08T21:46:28.495Z,21.13
2023-02-08T21:49:16.129Z,21.63
2023-02-08T21:52:02.472Z,21.30
2023-02-08T21:54:31.490Z,22.40
2023-02-08T21:57:00.186Z,21.73
2023-02-08T21:59:28.335Z,21.43
2023-02-08T22:01:56.093Z,21.37
2023-02-08T22:04:23.400Z,22.03
2023-02-08T22:06:50.344Z,20.77
2023-02-08T22:09:18.212Z,21.90
2023-02-08T22:11:45.528Z,23.43
2023-02-08T22:14:12.951Z,25.70
2023-02-08T22:16:40.393Z,29.33
2023-02-08T22:19:07.875Z,30.57
2023-02-08T22:21:34.777Z,31.90
2023-02-08T22:24:01.640Z,30.13
2023-02-08T22:26:28.762Z,31.10
2023-02-08T22:28:55.663Z,29.47
2023-02-08T22:31:22.607Z,30.90
2023-02-08T22:33:53.160Z,28.73
2023-02-08T22:36:20.538Z,28.37
2023-02-08T22:38:47.455Z,28.17
2023-02-08T22:41:16.343Z,27.57
2023-02-08T22:43:45.033Z,26.67
2023-02-08T22:46:12.635Z,27.27
2023-02-08T22:48:39.530Z,26.70
2023-02-08T22:51:08.644Z,22.47
2023-02-08T22:53:35.459Z,21.27
2023-02-08T22:56:02.679Z,21.27
2023-02-08T22:58:29.781Z,21.30
2023-02-08T23:00:56.770Z,20.77
2023-02-08T23:03:23.679Z,20.23
2023-02-08T23:05:51.910Z,21.43
2023-02-08T23:08:21.718Z,19.90
2023-02-08T23:10:48.834Z,19.97
2023-02-08T23:13:16.312Z,20.30
2023-02-08T23:15:44.937Z,19.90
2023-02-08T23:18:12.576Z,20.30
2023-02-08T23:20:40.539Z,20.37
2023-02-08T23:23:08.197Z,20.30
2023-02-08T23:25:38.194Z,20.33
2023-02-08T23:28:05.249Z,21.00
2023-02-08T23:30:32.176Z,19.00
2023-02-08T23:32:59.466Z,19.87
2023-02-08T23:35:26.707Z,20.53
2023-02-08T23:37:53.552Z,20.50
2023-02-08T23:40:20.429Z,20.27
2023-02-08T23:42:47.313Z,20.40
2023-02-08T23:45:14.385Z,20.63
2023-02-08T23:47:41.246Z,19.87
2023-02-08T23:50:08.697Z,20.40
2023-02-08T23:52:40.376Z,19.23
2023-02-08T23:55:07.724Z,19.60
2023-02-08T23:57:36.665Z,19.57
